createdAt,value
2024-05-09T00:00:22.536Z,2.90
2024-05-09T00:02:57.619Z,3.80
2024-05-09T00:05:25.316Z,3.60
2024-05-09T00:07:53.038Z,3.70
2024-05-09T00:10:28.821Z,3.30
2024-05-09T00:13:03.188Z,4.10
2024-05-09T00:15:30.982Z,3.10
2024-05-09T00:17:58.939Z,3.50
2024-05-09T00:20:35.084Z,3.60
2024-05-09T00:23:07.252Z,4.80
2024-05-09T00:25:58.552Z,4.40
2024-05-09T00:28:59.535Z,4.40
2024-05-09T00:31:27.308Z,4.50
2024-05-09T00:33:55.359Z,4.40
2024-05-09T00:36:22.983Z,4.00
2024-05-09T00:38:50.585Z,4.10
2024-05-09T00:41:19.751Z,4.60
2024-05-09T00:44:07.583Z,5.00
2024-05-09T00:46:48.716Z,3.80
2024-05-09T00:49:16.568Z,3.60
2024-05-09T00:51:44.162Z,3.70
2024-05-09T00:54:11.675Z,4.00
2024-05-09T00:56:39.187Z,3.90
2024-05-09T00:59:06.686Z,4.30
2024-05-09T01:01:34.425Z,3.90
2024-05-09T01:04:02.124Z,4.20
2024-05-09T01:06:49.591Z,4.30
2024-05-09T01:09:38.699Z,3.60
2024-05-09T01:12:06.859Z,4.00
2024-05-09T01:14:37.035Z,4.10
2024-05-09T01:17:04.743Z,3.70
2024-05-09T01:19:32.830Z,3.20
2024-05-09T01:22:20.614Z,3.20
2024-05-09T01:25:01.674Z,3.70
2024-05-09T01:27:30.636Z,3.60
2024-05-09T01:29:58.116Z,4.00
2024-05-09T01:32:25.951Z,3.60
2024-05-09T01:34:53.571Z,3.50
2024-05-09T01:37:21.072Z,3.80
2024-05-09T01:39:48.629Z,4.00
2024-05-09T01:42:17.196Z,3.70
2024-05-09T01:44:45.085Z,4.10
2024-05-09T01:47:12.643Z,2.90
2024-05-09T01:49:40.280Z,4.00
2024-05-09T01:52:27.686Z,3.90
2024-05-09T01:55:28.633Z,3.70
2024-05-09T01:58:00.045Z,3.80
2024-05-09T02:00:36.167Z,4.20
2024-05-09T02:03:14.601Z,3.80
2024-05-09T02:05:45.610Z,4.40
2024-05-09T02:08:27.759Z,3.60
2024-05-09T02:11:28.705Z,3.80
2024-05-09T02:14:10.160Z,4.00
2024-05-09T02:16:37.890Z,3.70
2024-05-09T02:19:06.111Z,4.20
2024-05-09T02:21:34.490Z,4.50
2024-05-09T02:24:02.001Z,3.80
2024-05-09T02:26:29.593Z,4.30
2024-05-09T02:28:57.274Z,4.20
2024-05-09T02:31:24.865Z,3.80
2024-05-09T02:33:52.499Z,4.10
2024-05-09T02:36:20.335Z,4.10
2024-05-09T02:38:47.950Z,4.30
2024-05-09T02:41:15.520Z,3.90
2024-05-09T02:44:03.774Z,3.70
2024-05-09T02:47:04.739Z,3.60
2024-05-09T02:49:45.923Z,4.10
2024-05-09T02:52:17.561Z,4.30
2024-05-09T02:54:45.145Z,4.40
2024-05-09T02:57:12.767Z,4.40
2024-05-09T02:59:40.247Z,4.10
2024-05-09T03:02:07.790Z,4.00
2024-05-09T03:04:35.350Z,4.40
2024-05-09T03:07:06.235Z,4.20
2024-05-09T03:09:34.094Z,4.30
2024-05-09T03:12:01.736Z,4.30
2024-05-09T03:14:29.383Z,4.90
2024-05-09T03:16:56.957Z,5.40
2024-05-09T03:19:38.011Z,7.30
2024-05-09T03:22:05.588Z,7.90
2024-05-09T03:24:33.071Z,7.30
2024-05-09T03:27:00.640Z,8.20
2024-05-09T03:29:28.255Z,5.70
2024-05-09T03:31:55.973Z,6.80
2024-05-09T03:34:24.160Z,6.00
2024-05-09T03:36:51.747Z,4.00
2024-05-09T03:39:19.299Z,4.70
2024-05-09T03:41:46.836Z,3.50
2024-05-09T03:44:14.341Z,4.20
2024-05-09T03:46:41.790Z,4.30
2024-05-09T03:49:09.542Z,3.60
2024-05-09T03:51:37.121Z,3.70
2024-05-09T03:54:04.596Z,3.60
2024-05-09T03:56:32.198Z,4.20
2024-05-09T03:59:00.072Z,3.70
2024-05-09T04:01:29.982Z,3.20
2024-05-09T04:03:57.731Z,3.50
2024-05-09T04:06:25.770Z,3.50
2024-05-09T04:08:53.389Z,3.60
2024-05-09T04:11:21.054Z,3.30
2024-05-09T04:13:48.659Z,3.20
2024-05-09T04:16:16.283Z,2.80
2024-05-09T04:18:43.927Z,3.30
2024-05-09T04:21:11.590Z,3.00
2024-05-09T04:23:39.392Z,3.50
2024-05-09T04:26:08.532Z,3.20
2024-05-09T04:28:36.184Z,3.30
2024-05-09T04:31:03.959Z,3.30
2024-05-09T04:33:31.577Z,2.90
2024-05-09T04:35:59.142Z,3.20
2024-05-09T04:38:26.644Z,3.40
2024-05-09T04:40:54.191Z,3.30
2024-05-09T04:43:22.146Z,3.10
2024-05-09T04:45:50.020Z,3.00
2024-05-09T04:48:17.897Z,3.40
2024-05-09T04:50:45.714Z,4.10
2024-05-09T04:53:16.778Z,3.50
2024-05-09T04:55:44.767Z,4.00
2024-05-09T04:58:15.430Z,3.90
2024-05-09T05:00:44.474Z,3.30
2024-05-09T05:03:14.622Z,3.40
2024-05-09T05:05:45.036Z,3.70
2024-05-09T05:08:15.019Z,3.60
2024-05-09T05:10:43.298Z,3.00
2024-05-09T05:13:22.268Z,4.00
2024-05-09T05:15:53.134Z,3.40
2024-05-09T05:18:21.626Z,3.50
2024-05-09T05:20:49.364Z,3.70
2024-05-09T05:23:20.764Z,3.20
2024-05-09T05:25:55.289Z,3.30
2024-05-09T05:28:23.548Z,3.60
2024-05-09T05:30:51.630Z,3.40
2024-05-09T05:33:20.217Z,3.50
2024-05-09T05:35:48.227Z,3.70
2024-05-09T05:38:15.898Z,3.60
2024-05-09T05:40:43.609Z,3.30
2024-05-09T05:43:20.473Z,3.50
2024-05-09T05:45:48.043Z,3.50
2024-05-09T05:48:17.174Z,3.90
2024-05-09T05:50:45.368Z,3.40
2024-05-09T05:53:13.198Z,4.40
2024-05-09T05:55:41.006Z,3.50
2024-05-09T05:58:10.159Z,3.40
2024-05-09T06:00:39.889Z,3.20
2024-05-09T06:03:13.695Z,3.30
2024-05-09T06:05:46.709Z,3.40
2024-05-09T06:08:14.736Z,3.60
2024-05-09T06:10:42.636Z,3.30
2024-05-09T06:13:11.858Z,3.20
2024-05-09T06:15:40.295Z,3.50
2024-05-09T06:18:08.482Z,3.20
2024-05-09T06:20:38.178Z,3.50
2024-05-09T06:23:06.636Z,3.10
2024-05-09T06:25:35.573Z,3.30
2024-05-09T06:28:03.594Z,2.60
2024-05-09T06:30:38.662Z,2.90
2024-05-09T06:33:10.450Z,3.70
2024-05-09T06:35:39.812Z,2.70
2024-05-09T06:38:10.898Z,3.10
2024-05-09T06:40:41.096Z,3.40
2024-05-09T06:43:14.327Z,2.90
2024-05-09T06:45:42.459Z,3.00
2024-05-09T06:48:10.484Z,2.70
2024-05-09T06:50:39.904Z,2.60
2024-05-09T06:53:08.514Z,2.70
2024-05-09T06:55:36.640Z,2.70
2024-05-09T06:58:05.568Z,2.40
2024-05-09T07:00:38.893Z,2.50
2024-05-09T07:03:15.346Z,2.50
2024-05-09T07:05:45.844Z,2.40
2024-05-09T07:08:14.199Z,2.60
2024-05-09T07:10:41.858Z,2.40
2024-05-09T07:13:10.222Z,2.20
2024-05-09T07:15:38.039Z,2.90
2024-05-09T07:18:12.585Z,2.40
2024-05-09T07:20:40.898Z,3.00
2024-05-09T07:23:09.750Z,2.70
2024-05-09T07:25:37.621Z,2.40
2024-05-09T07:28:05.469Z,2.50
2024-05-09T07:30:34.622Z,2.60
2024-05-09T07:33:03.614Z,2.30
2024-05-09T07:35:31.631Z,2.10
2024-05-09T07:37:59.988Z,2.60
2024-05-09T07:40:35.091Z,2.20
2024-05-09T07:43:04.947Z,2.20
2024-05-09T07:52:23.648Z,2.20
2024-05-09T07:53:39.500Z,2.30
2024-05-09T07:56:11.698Z,2.70
2024-05-09T07:58:39.972Z,2.80
2024-05-09T08:01:07.501Z,2.40
2024-05-09T08:03:35.754Z,2.70
2024-05-09T08:06:03.673Z,2.20
2024-05-09T08:08:34.454Z,2.60
2024-05-09T08:11:03.561Z,2.50
2024-05-09T08:13:31.734Z,2.50
2024-05-09T08:15:59.370Z,2.60
2024-05-09T08:18:26.984Z,2.40
2024-05-09T08:21:15.357Z,3.00
2024-05-09T08:23:56.405Z,2.30
2024-05-09T08:26:23.907Z,1.70
2024-05-09T08:28:51.798Z,2.40
2024-05-09T08:31:19.447Z,2.20
2024-05-09T08:33:47.648Z,1.80
2024-05-09T08:36:16.189Z,2.40
2024-05-09T08:38:44.054Z,2.30
2024-05-09T08:41:13.448Z,2.00
2024-05-09T08:44:02.329Z,2.50
2024-05-09T08:47:04.415Z,2.00
2024-05-09T08:49:45.550Z,2.10
2024-05-09T08:52:13.258Z,2.20
2024-05-09T08:54:40.827Z,2.10
2024-05-09T08:57:08.342Z,2.10
2024-05-09T08:59:36.644Z,2.10
2024-05-09T09:02:05.269Z,2.00
2024-05-09T09:04:33.528Z,2.10
2024-05-09T09:07:21.445Z,2.30
2024-05-09T09:10:29.611Z,1.80
2024-05-09T09:13:32.389Z,1.80
2024-05-09T09:16:33.409Z,1.90
2024-05-09T09:19:16.495Z,1.90
2024-05-09T09:21:44.311Z,2.00
2024-05-09T09:24:32.462Z,1.90
2024-05-09T09:27:33.492Z,2.40
2024-05-09T09:30:37.556Z,2.10
2024-05-09T09:33:19.746Z,1.80
2024-05-09T09:35:47.469Z,1.90
2024-05-09T09:38:16.337Z,2.00
2024-05-09T09:43:33.610Z,1.90
2024-05-09T09:46:02.102Z,1.90
2024-05-09T09:48:31.273Z,2.00
2024-05-09T09:50:58.839Z,1.90
2024-05-09T09:53:26.604Z,1.90
2024-05-09T09:55:55.805Z,2.00
2024-05-09T09:58:23.397Z,1.80
2024-05-09T10:00:50.999Z,1.80
2024-05-09T10:03:18.672Z,1.70
2024-05-09T10:05:47.476Z,1.80
2024-05-09T10:08:35.572Z,2.00
2024-05-09T10:11:21.029Z,1.80
2024-05-09T10:16:20.203Z,1.90
2024-05-09T10:18:48.077Z,1.80
2024-05-09T10:21:35.729Z,1.70
2024-05-09T10:24:36.645Z,1.80
2024-05-09T10:27:30.267Z,1.90
2024-05-09T10:30:02.840Z,2.30
2024-05-09T10:32:37.855Z,1.80
2024-05-09T10:35:08.816Z,1.80
2024-05-09T10:37:36.463Z,3.70
2024-05-09T10:40:26.595Z,2.00
2024-05-09T10:43:11.788Z,1.80
2024-05-09T10:45:46.141Z,2.00
2024-05-09T10:48:13.792Z,2.00
2024-05-09T10:50:43.645Z,1.90
2024-05-09T10:53:11.202Z,1.90
2024-05-09T10:55:38.694Z,1.60
2024-05-09T10:58:16.958Z,1.80
2024-05-09T11:00:44.791Z,1.90
2024-05-09T11:03:12.540Z,1.50
2024-05-09T11:05:42.285Z,1.60
2024-05-09T11:08:10.716Z,1.40
2024-05-09T11:10:38.210Z,1.70
2024-05-09T11:13:06.088Z,1.80
2024-05-09T11:15:40.918Z,1.40
2024-05-09T11:18:08.738Z,1.40
2024-05-09T11:20:37.260Z,1.60
2024-05-09T11:23:06.082Z,1.40
2024-05-09T11:25:33.672Z,1.40
2024-05-09T11:28:01.385Z,1.50
2024-05-09T11:30:32.062Z,2.30
2024-05-09T11:33:00.450Z,1.40
2024-05-09T11:35:29.253Z,1.80
2024-05-09T11:38:16.704Z,1.40
2024-05-09T11:41:17.678Z,1.50
2024-05-09T11:43:58.772Z,1.50
2024-05-09T11:46:26.493Z,1.60
2024-05-09T11:48:54.282Z,1.60
2024-05-09T11:51:22.131Z,1.70
2024-05-09T11:53:49.676Z,1.50
2024-05-09T11:56:17.309Z,1.50
2024-05-09T11:58:44.900Z,1.20
2024-05-09T12:01:27.914Z,1.50
2024-05-09T12:04:28.804Z,1.20
2024-05-09T12:07:27.769Z,1.60
2024-05-09T12:09:55.409Z,1.50
2024-05-09T12:12:23.038Z,1.70
2024-05-09T12:14:50.582Z,1.40
2024-05-09T12:17:18.120Z,1.60
2024-05-09T12:19:45.865Z,1.30
2024-05-09T12:22:13.479Z,1.50
2024-05-09T12:24:41.076Z,1.50
2024-05-09T12:27:08.560Z,1.50
2024-05-09T12:29:38.905Z,1.40
2024-05-09T12:32:06.976Z,1.40
2024-05-09T12:34:34.582Z,1.80
2024-05-09T12:37:02.384Z,1.10
2024-05-09T12:39:30.042Z,1.30
2024-05-09T12:41:57.693Z,1.60
2024-05-09T12:44:25.194Z,1.40
2024-05-09T12:46:52.924Z,1.50
2024-05-09T12:49:21.618Z,1.00
2024-05-09T12:51:49.762Z,1.70
2024-05-09T12:54:17.392Z,2.20
2024-05-09T12:56:45.015Z,1.50
2024-05-09T12:59:12.520Z,1.60
2024-05-09T13:01:40.126Z,1.60
2024-05-09T13:04:07.925Z,1.70
2024-05-09T13:06:35.613Z,1.90
2024-05-09T13:09:03.239Z,1.30
2024-05-09T13:11:30.763Z,1.50
2024-05-09T13:13:58.288Z,1.30
2024-05-09T13:16:25.972Z,1.30
2024-05-09T13:18:53.655Z,1.40
2024-05-09T13:21:21.148Z,1.70
2024-05-09T13:23:48.758Z,3.20
2024-05-09T13:26:16.570Z,1.40
2024-05-09T13:28:44.045Z,1.30
2024-05-09T13:31:11.668Z,1.70
2024-05-09T13:33:39.328Z,1.50
2024-05-09T13:36:07.631Z,1.30
2024-05-09T13:38:35.354Z,1.50
2024-05-09T13:41:02.913Z,1.50
2024-05-09T13:43:30.594Z,1.30
2024-05-09T13:45:58.373Z,1.30
2024-05-09T13:48:26.031Z,1.40
2024-05-09T13:50:53.524Z,1.50
2024-05-09T13:53:21.104Z,1.40
2024-05-09T13:55:48.684Z,1.30
2024-05-09T13:58:16.483Z,1.40
2024-05-09T14:00:49.188Z,1.50
2024-05-09T14:03:22.383Z,1.50
2024-05-09T14:05:51.356Z,1.60
2024-05-09T14:08:21.836Z,1.20
2024-05-09T14:10:50.094Z,1.70
2024-05-09T14:13:18.215Z,1.60
2024-05-09T14:15:46.579Z,1.30
2024-05-09T14:18:14.726Z,1.20
2024-05-09T14:20:42.964Z,1.50
2024-05-09T14:23:10.762Z,1.30
2024-05-09T14:25:42.182Z,1.30
2024-05-09T14:28:12.544Z,1.40
2024-05-09T14:30:41.609Z,1.50
2024-05-09T14:33:09.790Z,1.20
2024-05-09T14:35:38.651Z,1.50
2024-05-09T14:38:07.427Z,1.50
2024-05-09T14:40:41.319Z,1.50
2024-05-09T14:43:11.831Z,1.50
2024-05-09T14:45:39.858Z,1.40
2024-05-09T14:48:08.030Z,1.60
2024-05-09T14:50:38.946Z,1.60
2024-05-09T14:53:12.052Z,1.60
2024-05-09T14:55:41.727Z,1.60
2024-05-09T14:58:10.923Z,1.40
2024-05-09T15:00:46.664Z,2.40
2024-05-09T15:03:19.365Z,1.30
2024-05-09T15:05:47.409Z,1.20
2024-05-09T15:08:16.193Z,1.40
2024-05-09T15:10:43.831Z,1.70
2024-05-09T15:13:13.423Z,1.40
2024-05-09T15:15:43.380Z,1.30
2024-05-09T15:18:11.463Z,1.50
2024-05-09T15:23:07.699Z,1.80
2024-05-09T15:25:36.399Z,2.10
2024-05-09T15:28:07.161Z,1.40
2024-05-09T15:30:35.235Z,2.00
2024-05-09T15:33:06.841Z,1.60
2024-05-09T15:35:35.934Z,1.60
2024-05-09T15:38:04.389Z,1.40
2024-05-09T15:40:39.036Z,1.20
2024-05-09T15:43:09.547Z,1.70
2024-05-09T15:45:40.093Z,1.30
2024-05-09T15:48:09.052Z,1.40
2024-05-09T15:50:40.789Z,2.50
2024-05-09T15:53:11.147Z,1.60
2024-05-09T15:55:39.592Z,1.50
2024-05-09T15:58:07.660Z,1.70
2024-05-09T16:00:39.827Z,2.00
2024-05-09T16:03:11.087Z,1.80
2024-05-09T16:05:40.666Z,1.40
2024-05-09T16:08:08.390Z,1.70
2024-05-09T16:10:39.243Z,2.70
2024-05-09T16:13:07.627Z,1.70
2024-05-09T16:15:35.179Z,1.60
2024-05-09T16:18:02.819Z,1.50
2024-05-09T16:20:38.813Z,1.50
2024-05-09T16:23:09.843Z,1.40
2024-05-09T16:25:43.017Z,1.60
2024-05-09T16:28:11.059Z,1.60
2024-05-09T16:30:39.849Z,1.70
2024-05-09T16:33:08.754Z,1.70
2024-05-09T16:35:40.593Z,1.90
2024-05-09T16:38:08.125Z,1.60
2024-05-09T16:40:39.726Z,2.10
2024-05-09T16:43:12.513Z,1.60
2024-05-09T16:45:41.285Z,2.00
2024-05-09T16:48:09.139Z,1.80
2024-05-09T16:50:37.084Z,1.80
2024-05-09T16:53:05.892Z,1.60
2024-05-09T16:55:35.035Z,1.80
2024-05-09T16:58:03.230Z,1.60
2024-05-09T17:00:39.422Z,1.40
2024-05-09T17:03:15.169Z,1.40
2024-05-09T17:05:46.762Z,3.10
2024-05-09T17:08:16.347Z,4.00
2024-05-09T17:10:45.069Z,6.30
2024-05-09T17:13:12.750Z,6.80
2024-05-09T17:15:40.776Z,4.80
2024-05-09T17:18:09.615Z,5.00
2024-05-09T17:20:37.821Z,6.50
2024-05-09T17:23:12.857Z,9.00
2024-05-09T17:25:41.198Z,6.90
2024-05-09T17:28:09.206Z,5.20
2024-05-09T17:30:38.763Z,4.90
2024-05-09T17:33:09.331Z,2.70
2024-05-09T17:35:38.121Z,3.50
2024-05-09T17:38:06.178Z,3.30
2024-05-09T17:40:36.595Z,4.80
2024-05-09T17:43:08.203Z,5.10
2024-05-09T17:45:38.331Z,4.70
2024-05-09T17:48:06.581Z,5.30
2024-05-09T17:50:36.658Z,5.30
2024-05-09T17:53:06.043Z,4.10
2024-05-09T17:55:35.359Z,4.10
2024-05-09T17:58:06.498Z,3.30
2024-05-09T18:00:39.237Z,3.20
2024-05-09T18:03:13.483Z,3.80
2024-05-09T18:08:12.096Z,2.90
2024-05-09T18:10:43.039Z,2.90
2024-05-09T18:13:11.893Z,2.80
2024-05-09T18:15:40.260Z,2.90
2024-05-09T18:18:08.924Z,2.70
2024-05-09T18:20:42.632Z,9.20
2024-05-09T18:23:17.778Z,7.30
2024-05-09T18:25:47.131Z,3.30
2024-05-09T18:28:16.134Z,3.80
2024-05-09T18:30:44.096Z,5.30
2024-05-09T18:33:12.188Z,17.90
2024-05-09T18:35:43.893Z,13.90
2024-05-09T18:38:11.555Z,6.40
2024-05-09T18:40:40.898Z,3.90
2024-05-09T18:43:10.228Z,79.30
2024-05-09T18:45:38.429Z,217.80
2024-05-09T18:48:08.157Z,119.90
2024-05-09T18:50:39.453Z,184.40
2024-05-09T18:55:37.730Z,43.00
2024-05-09T18:58:05.380Z,19.10
2024-05-09T19:00:36.964Z,36.50
2024-05-09T19:03:09.253Z,78.10
2024-05-09T19:05:39.408Z,56.80
2024-05-09T19:08:07.954Z,45.60
2024-05-09T19:10:36.976Z,24.10
2024-05-09T19:13:09.178Z,12.70
2024-05-09T19:15:40.474Z,25.00
2024-05-09T19:18:09.296Z,108.70
2024-05-09T19:20:37.641Z,50.30
2024-05-09T19:23:06.450Z,28.20
2024-05-09T19:25:35.234Z,13.40
2024-05-09T19:28:03.830Z,38.80
2024-05-09T19:30:38.645Z,57.90
2024-05-09T19:33:11.405Z,76.60
2024-05-09T19:35:40.231Z,53.10
2024-05-09T19:38:07.613Z,59.60
2024-05-09T19:40:35.786Z,87.40
2024-05-09T19:43:04.738Z,93.20
2024-05-09T19:45:34.828Z,85.00
2024-05-09T19:48:04.090Z,62.10
2024-05-09T19:50:39.877Z,138.40
2024-05-09T19:53:12.213Z,151.80
2024-05-09T19:55:40.683Z,36.40
2024-05-09T19:58:08.962Z,12.00
2024-05-09T20:00:39.545Z,51.80
2024-05-09T20:03:10.734Z,98.20
2024-05-09T20:05:39.046Z,49.10
2024-05-09T20:08:07.655Z,57.60
2024-05-09T20:10:36.503Z,43.00
2024-05-09T20:13:06.417Z,50.10
2024-05-09T20:15:36.102Z,47.90
2024-05-09T20:18:04.319Z,22.80
2024-05-09T20:20:37.808Z,10.70
2024-05-09T20:23:10.103Z,17.80
2024-05-09T20:25:37.838Z,27.50
2024-05-09T20:28:06.270Z,43.90
2024-05-09T20:30:34.795Z,63.50
2024-05-09T20:33:04.550Z,78.90
2024-05-09T20:35:33.526Z,34.60
2024-05-09T20:38:01.778Z,38.00
2024-05-09T20:40:34.263Z,14.70
2024-05-09T20:43:06.247Z,21.50
2024-05-09T20:45:34.680Z,5.70
2024-05-09T20:48:02.663Z,6.10
2024-05-09T20:50:37.496Z,24.20
2024-05-09T20:53:09.103Z,27.80
2024-05-09T20:55:36.909Z,26.90
2024-05-09T20:58:04.882Z,124.90
2024-05-09T21:00:40.156Z,35.40
2024-05-09T21:03:12.569Z,120.10
2024-05-09T21:05:41.257Z,148.90
2024-05-09T21:08:09.250Z,29.40
2024-05-09T21:10:37.609Z,18.40
2024-05-09T21:13:06.687Z,60.80
2024-05-09T21:15:35.625Z,3.80
2024-05-09T21:18:04.424Z,34.50
2024-05-09T21:20:34.430Z,52.20
2024-05-09T21:23:02.775Z,158.30
2024-05-09T21:25:30.812Z,61.80
2024-05-09T21:27:58.618Z,7.30
2024-05-09T21:30:33.161Z,3.70
2024-05-09T21:33:09.936Z,13.80
2024-05-09T21:35:39.089Z,4.40
2024-05-09T21:38:07.717Z,5.90
2024-05-09T21:40:36.900Z,3.70
2024-05-09T21:43:06.437Z,9.60
2024-05-09T21:45:34.526Z,100.20
2024-05-09T21:48:06.177Z,33.10
2024-05-09T21:50:39.882Z,21.30
2024-05-09T21:53:11.211Z,79.10
2024-05-09T21:55:39.022Z,28.00
2024-05-09T21:58:06.650Z,52.60
2024-05-09T22:00:38.019Z,45.70
2024-05-09T22:05:35.551Z,104.40
2024-05-09T22:08:03.567Z,42.70
2024-05-09T22:10:34.656Z,30.50
2024-05-09T22:13:08.331Z,65.80
2024-05-09T22:15:37.646Z,90.40
2024-05-09T22:18:07.308Z,29.60
2024-05-09T22:20:38.470Z,20.60
2024-05-09T22:23:08.337Z,32.10
2024-05-09T22:25:38.379Z,43.70
2024-05-09T22:28:06.409Z,35.60
2024-05-09T22:30:37.979Z,142.80
2024-05-09T22:33:08.485Z,63.60
2024-05-09T22:35:37.075Z,50.80
2024-05-09T22:38:04.730Z,28.90
2024-05-09T22:40:41.985Z,30.80
2024-05-09T22:43:25.311Z,58.00
2024-05-09T22:45:54.949Z,41.40
2024-05-09T22:48:24.602Z,29.00
2024-05-09T22:50:53.274Z,7.20
2024-05-09T22:53:24.931Z,3.30
2024-05-09T22:55:52.651Z,8.90
2024-05-09T22:58:20.799Z,40.00
2024-05-09T23:00:48.698Z,21.80
2024-05-09T23:03:16.575Z,17.40
2024-05-09T23:05:44.342Z,8.60
2024-05-09T23:08:11.830Z,20.30
2024-05-09T23:10:39.395Z,21.10
2024-05-09T23:13:07.792Z,29.30
2024-05-09T23:15:36.514Z,15.50
2024-05-09T23:18:04.414Z,5.10
2024-05-09T23:20:37.480Z,2.90
2024-05-09T23:23:08.029Z,3.30
2024-05-09T23:25:36.607Z,6.40
2024-05-09T23:28:04.595Z,8.10
2024-05-09T23:30:37.871Z,14.20
2024-05-09T23:33:09.829Z,10.00
2024-05-09T23:35:38.464Z,5.30
2024-05-09T23:38:05.966Z,20.10
2024-05-09T23:40:39.135Z,24.60
2024-05-09T23:43:10.014Z,7.00
2024-05-09T23:45:38.060Z,3.10
2024-05-09T23:48:06.063Z,2.70
2024-05-09T23:50:36.799Z,2.90
2024-05-09T23:53:07.650Z,3.10
2024-05-09T23:55:36.586Z,2.80
2024-05-09T23:58:04.380Z,2.90
